Time;durP1;ratioP1;P1;durP2;ratioP2;P2;SDS_P1;SDS_P2;PMS_P1;PMS_P2;Temp;Humidity;BMP_temperature;BMP_pressure;BME280_temperature;BME280_humidity;BME280_pressure;Samples;Min_cycle;Max_cycle;Signal;HPM_P1;HPM_P2
2023/10/23 00:02:13;;;;;;;2.53;2.33;;;;;;;;;;5114078;28;20504;-60
2023/10/23 00:04:40;;;;;;;4.10;2.60;;;;;;;;;;5114097;28;20400;-60
2023/10/23 00:07:06;;;;;;;4.68;2.60;;;;;;;;;;5113997;28;20056;-61
2023/10/23 00:09:33;;;;;;;4.10;2.35;;;;;;;;;;5113955;28;20047;-61
2023/10/23 00:12:00;;;;;;;3.33;2.45;;;;;;;;;;5113606;28;20499;-61
2023/10/23 00:14:28;;;;;;;3.33;2.63;;;;;;;;;;5112876;28;20055;-61
2023/10/23 00:16:55;;;;;;;2.83;2.60;;;;;;;;;;5113678;28;20484;-61
2023/10/23 00:19:22;;;;;;;5.00;2.80;;;;;;;;;;5113362;28;20055;-61
2023/10/23 00:21:49;;;;;;;5.53;2.88;;;;;;;;;;5113667;28;20137;-61
2023/10/23 00:24:16;;;;;;;4.45;2.80;;;;;;;;;;5113204;28;20047;-61
2023/10/23 00:26:43;;;;;;;3.97;2.70;;;;;;;;;;5113783;28;20055;-62
2023/10/23 00:29:09;;;;;;;4.25;2.88;;;;;;;;;;5113558;28;20056;-61
2023/10/23 00:31:38;;;;;;;5.50;2.80;;;;;;;;;;5113512;28;20059;-61
2023/10/23 00:34:04;;;;;;;5.18;2.85;;;;;;;;;;5113329;28;20047;-61
2023/10/23 00:36:31;;;;;;;4.82;2.95;;;;;;;;;;5113074;28;20048;-61
2023/10/23 00:38:58;;;;;;;5.03;2.90;;;;;;;;;;5113445;28;20047;-61
2023/10/23 00:41:25;;;;;;;3.28;2.92;;;;;;;;;;5113417;28;20047;-61
2023/10/23 00:43:52;;;;;;;2.70;2.50;;;;;;;;;;5113012;28;20063;-61
2023/10/23 00:46:20;;;;;;;4.93;2.80;;;;;;;;;;5113130;28;20055;-61
2023/10/23 00:48:48;;;;;;;4.57;2.90;;;;;;;;;;5113446;28;20523;-60
2023/10/23 00:51:15;;;;;;;5.43;2.80;;;;;;;;;;5112688;28;20059;-59
2023/10/23 00:53:42;;;;;;;4.80;2.45;;;;;;;;;;5110630;28;20056;-60
2023/10/23 00:56:09;;;;;;;5.90;2.70;;;;;;;;;;5092389;28;20063;-61
2023/10/23 00:58:38;;;;;;;3.72;2.60;;;;;;;;;;5091100;28;20056;-61
2023/10/23 01:01:05;;;;;;;3.50;2.28;;;;;;;;;;5090951;28;20405;-60
2023/10/23 01:03:35;;;;;;;2.80;2.15;;;;;;;;;;5091877;28;20044;-61
2023/10/23 01:06:04;;;;;;;3.08;2.38;;;;;;;;;;5092646;28;20477;-60
2023/10/23 01:08:33;;;;;;;3.35;2.33;;;;;;;;;;5092602;28;20059;-61
2023/10/23 01:11:00;;;;;;;4.05;2.50;;;;;;;;;;5092557;28;20067;-61
2023/10/23 01:13:27;;;;;;;3.42;2.40;;;;;;;;;;5092428;28;20496;-61
2023/10/23 01:15:54;;;;;;;3.88;2.40;;;;;;;;;;5092477;28;20052;-61
2023/10/23 01:18:21;;;;;;;3.55;2.13;;;;;;;;;;5092214;28;20509;-61
2023/10/23 01:20:50;;;;;;;4.63;2.92;;;;;;;;;;5092481;28;20052;-61
2023/10/23 01:23:21;;;;;;;4.15;2.70;;;;;;;;;;5092469;28;20055;-61
2023/10/23 01:25:52;;;;;;;4.00;2.70;;;;;;;;;;5093184;28;20047;-61
2023/10/23 01:28:19;;;;;;;2.95;2.53;;;;;;;;;;5096552;28;20059;-60
2023/10/23 01:30:45;;;;;;;4.82;3.20;;;;;;;;;;5096332;28;20461;-61
2023/10/23 01:33:12;;;;;;;5.28;3.58;;;;;;;;;;5096045;28;20048;-61
2023/10/23 01:35:39;;;;;;;4.55;3.30;;;;;;;;;;5098717;28;20093;-61
2023/10/23 01:38:06;;;;;;;4.90;3.47;;;;;;;;;;5116926;28;20047;-61
2023/10/23 01:40:33;;;;;;;4.90;3.10;;;;;;;;;;5116470;28;20047;-61
2023/10/23 01:43:01;;;;;;;6.68;3.78;;;;;;;;;;5116730;28;20055;-60
2023/10/23 01:45:28;;;;;;;6.13;3.60;;;;;;;;;;5116339;28;20056;-61
2023/10/23 01:47:54;;;;;;;7.78;3.80;;;;;;;;;;5101518;28;20060;-61
2023/10/23 01:50:21;;;;;;;4.45;3.83;;;;;;;;;;5095705;28;20056;-61
2023/10/23 01:52:48;;;;;;;4.55;3.60;;;;;;;;;;5095523;28;20382;-61
2023/10/23 01:55:15;;;;;;;4.45;3.10;;;;;;;;;;5095409;28;20059;-61
2023/10/23 01:57:44;;;;;;;3.38;2.95;;;;;;;;;;5095478;28;20052;-61
2023/10/23 02:00:13;;;;;;;5.53;2.70;;;;;;;;;;5095736;28;20082;-61
2023/10/23 02:02:40;;;;;;;8.90;4.35;;;;;;;;;;5095290;28;20048;-61
2023/10/23 02:05:07;;;;;;;4.55;3.80;;;;;;;;;;5095696;28;20052;-61
2023/10/23 02:07:34;;;;;;;4.53;3.50;;;;;;;;;;5095736;28;20060;-61
2023/10/23 02:10:00;;;;;;;4.57;3.60;;;;;;;;;;5095831;28;20055;-60
2023/10/23 02:12:32;;;;;;;4.05;3.22;;;;;;;;;;5095503;28;20051;-60
2023/10/23 02:14:59;;;;;;;4.95;3.50;;;;;;;;;;5095285;28;20063;-60
2023/10/23 02:17:27;;;;;;;5.05;3.50;;;;;;;;;;5095599;28;20052;-61
2023/10/23 02:19:54;;;;;;;4.22;3.15;;;;;;;;;;5095599;28;20480;-61
2023/10/23 02:22:21;;;;;;;3.50;2.90;;;;;;;;;;5115572;28;20047;-61
2023/10/23 02:24:48;;;;;;;4.95;3.03;;;;;;;;;;5115621;28;20058;-61
2023/10/23 02:27:14;;;;;;;5.40;3.00;;;;;;;;;;5115516;28;20062;-61
2023/10/23 02:29:41;;;;;;;4.78;3.17;;;;;;;;;;5115186;28;20055;-61
2023/10/23 02:32:08;;;;;;;5.22;3.42;;;;;;;;;;5115494;28;20063;-61
2023/10/23 02:34:37;;;;;;;5.78;3.40;;;;;;;;;;5115699;28;20400;-61
2023/10/23 02:37:04;;;;;;;4.37;3.30;;;;;;;;;;5114869;28;20067;-61
2023/10/23 02:39:31;;;;;;;8.60;3.33;;;;;;;;;;5115307;28;20815;-61
2023/10/23 02:41:58;;;;;;;4.72;3.60;;;;;;;;;;5115538;28;20477;-61
2023/10/23 02:44:26;;;;;;;4.45;3.90;;;;;;;;;;5115063;28;20058;-61
2023/10/23 02:46:53;;;;;;;5.13;3.60;;;;;;;;;;5114960;28;20059;-61
2023/10/23 02:49:20;;;;;;;6.18;4.15;;;;;;;;;;5114887;28;20055;-61
2023/10/23 02:51:48;;;;;;;5.20;3.67;;;;;;;;;;5115155;28;20051;-61
2023/10/23 02:54:16;;;;;;;6.93;4.57;;;;;;;;;;5115079;28;20051;-61
2023/10/23 02:56:42;;;;;;;7.38;4.13;;;;;;;;;;5115023;28;20075;-61
2023/10/23 02:59:09;;;;;;;4.88;4.10;;;;;;;;;;5114922;28;20432;-60
2023/10/23 03:01:37;;;;;;;5.43;3.50;;;;;;;;;;5114803;28;20051;-61
2023/10/23 03:04:04;;;;;;;5.85;3.53;;;;;;;;;;5114852;28;20063;-60
2023/10/23 03:06:31;;;;;;;6.30;3.55;;;;;;;;;;5114928;28;20051;-61
2023/10/23 03:08:59;;;;;;;5.07;3.45;;;;;;;;;;5114711;28;20507;-61
2023/10/23 03:11:26;;;;;;;4.90;3.50;;;;;;;;;;5114680;28;20058;-61
2023/10/23 03:13:56;;;;;;;5.82;3.65;;;;;;;;;;5114456;28;20044;-61
2023/10/23 03:16:26;;;;;;;4.68;3.70;;;;;;;;;;5114752;28;20063;-60
2023/10/23 03:18:52;;;;;;;5.40;3.95;;;;;;;;;;5114273;28;20058;-61
2023/10/23 03:21:19;;;;;;;5.25;4.15;;;;;;;;;;5114438;28;20047;-61
2023/10/23 03:23:46;;;;;;;5.30;4.20;;;;;;;;;;5114444;28;20382;-61
2023/10/23 03:26:18;;;;;;;8.02;4.15;;;;;;;;;;5114485;28;20412;-61
2023/10/23 03:28:45;;;;;;;7.97;4.20;;;;;;;;;;5113379;28;20055;-61
2023/10/23 03:31:11;;;;;;;5.93;4.40;;;;;;;;;;5114341;28;20051;-61
2023/10/23 03:33:40;;;;;;;7.13;4.22;;;;;;;;;;5114022;28;20404;-61
2023/10/23 03:36:06;;;;;;;4.55;4.00;;;;;;;;;;5114032;28;20044;-61
2023/10/23 03:38:33;;;;;;;4.72;4.00;;;;;;;;;;5113901;28;20051;-61
2023/10/23 03:41:00;;;;;;;8.18;4.60;;;;;;;;;;5114075;28;20480;-61
2023/10/23 03:43:28;;;;;;;5.68;3.78;;;;;;;;;;5114176;28;20052;-61
2023/10/23 03:45:55;;;;;;;6.50;4.18;;;;;;;;;;5114059;28;20058;-61
2023/10/23 03:48:22;;;;;;;5.13;3.70;;;;;;;;;;5113682;28;20388;-61
2023/10/23 03:50:49;;;;;;;4.53;3.58;;;;;;;;;;5112842;28;20055;-61
2023/10/23 03:53:16;;;;;;;7.03;3.80;;;;;;;;;;5113956;28;20048;-61
2023/10/23 03:55:43;;;;;;;8.35;4.07;;;;;;;;;;5113749;28;20051;-61
2023/10/23 03:58:10;;;;;;;4.35;3.95;;;;;;;;;;5113430;28;20411;-60
2023/10/23 04:00:38;;;;;;;6.90;5.05;;;;;;;;;;5113691;28;20052;-61
2023/10/23 04:03:05;;;;;;;10.35;6.07;;;;;;;;;;5113381;28;20051;-61
2023/10/23 04:05:31;;;;;;;7.35;4.60;;;;;;;;;;5113312;28;20054;-60
2023/10/23 04:07:58;;;;;;;3.45;3.15;;;;;;;;;;5113486;28;20062;-61
2023/10/23 04:10:25;;;;;;;6.82;3.80;;;;;;;;;;5113880;28;20047;-61
2023/10/23 04:12:52;;;;;;;5.80;3.88;;;;;;;;;;5113456;28;20055;-61
2023/10/23 04:15:19;;;;;;;5.38;3.70;;;;;;;;;;5113084;28;20078;-61
2023/10/23 04:17:47;;;;;;;6.72;3.90;;;;;;;;;;5113570;28;20052;-61
2023/10/23 04:20:14;;;;;;;6.60;4.22;;;;;;;;;;5113390;28;20063;-61
2023/10/23 04:22:41;;;;;;;6.97;4.35;;;;;;;;;;5113244;28;20059;-61
2023/10/23 04:25:08;;;;;;;4.88;3.47;;;;;;;;;;5113050;28;20404;-61
2023/10/23 04:27:35;;;;;;;5.50;3.40;;;;;;;;;;5113573;28;20059;-61
2023/10/23 04:30:04;;;;;;;4.97;3.92;;;;;;;;;;5113327;28;20403;-61
2023/10/23 04:32:31;;;;;;;7.07;4.13;;;;;;;;;;5113584;28;20059;-61
2023/10/23 04:34:59;;;;;;;5.63;4.03;;;;;;;;;;5113175;28;20047;-60
2023/10/23 04:37:25;;;;;;;5.70;4.05;;;;;;;;;;5113227;28;20051;-61
2023/10/23 04:39:52;;;;;;;5.88;4.43;;;;;;;;;;5113074;28;20381;-61
2023/10/23 04:42:19;;;;;;;6.10;4.55;;;;;;;;;;5113013;28;20043;-62
2023/10/23 04:44:47;;;;;;;5.40;4.82;;;;;;;;;;5112614;28;20043;-60
2023/10/23 04:47:14;;;;;;;6.57;4.53;;;;;;;;;;5112694;28;20067;-61
2023/10/23 04:49:41;;;;;;;6.53;4.40;;;;;;;;;;5112500;28;20059;-61
2023/10/23 04:52:09;;;;;;;7.60;4.50;;;;;;;;;;5112948;28;20055;-61
2023/10/23 04:54:36;;;;;;;4.80;4.30;;;;;;;;;;5113142;28;20153;-61
2023/10/23 04:57:03;;;;;;;9.25;5.22;;;;;;;;;;5112841;28;20055;-60
2023/10/23 04:59:29;;;;;;;6.82;4.50;;;;;;;;;;5112753;28;20060;-61
2023/10/23 05:01:56;;;;;;;6.47;4.10;;;;;;;;;;5118182;28;20058;-61
2023/10/23 05:04:23;;;;;;;6.65;3.85;;;;;;;;;;5119498;28;20400;-60
2023/10/23 05:06:50;;;;;;;6.07;4.40;;;;;;;;;;5119517;28;20051;-60
2023/10/23 05:09:18;;;;;;;4.90;4.18;;;;;;;;;;5119471;28;20051;-60
2023/10/23 05:11:44;;;;;;;4.63;3.88;;;;;;;;;;5119373;28;20056;-60
2023/10/23 05:14:12;;;;;;;7.18;4.22;;;;;;;;;;5118915;28;20054;-61
2023/10/23 05:16:39;;;;;;;5.00;3.85;;;;;;;;;;5119213;28;20059;-61
2023/10/23 05:19:05;;;;;;;6.10;4.35;;;;;;;;;;5119046;28;20048;-61
2023/10/23 05:21:32;;;;;;;5.85;4.20;;;;;;;;;;5119455;28;20047;-61
2023/10/23 05:24:00;;;;;;;10.48;4.63;;;;;;;;;;5119170;28;20397;-61
2023/10/23 05:26:28;;;;;;;6.43;4.10;;;;;;;;;;5118747;28;20059;-61
2023/10/23 05:28:55;;;;;;;4.63;3.60;;;;;;;;;;5119118;28;20074;-61
2023/10/23 05:31:22;;;;;;;7.80;4.85;;;;;;;;;;5119208;28;20085;-61
2023/10/23 05:33:49;;;;;;;5.40;4.20;;;;;;;;;;5118713;28;20048;-61
2023/10/23 05:36:15;;;;;;;6.10;4.05;;;;;;;;;;5119225;28;20039;-61
2023/10/23 05:38:42;;;;;;;5.32;3.88;;;;;;;;;;5119154;28;20056;-62
2023/10/23 05:41:09;;;;;;;8.68;4.63;;;;;;;;;;5109339;27;20158;-60
2023/10/23 05:43:38;;;;;;;4.75;3.67;;;;;;;;;;5112548;27;20059;-62
2023/10/23 05:46:04;;;;;;;5.55;3.97;;;;;;;;;;5118394;27;20395;-61
2023/10/23 05:48:31;;;;;;;4.88;4.05;;;;;;;;;;5118042;28;20078;-62
2023/10/23 05:50:59;;;;;;;5.85;4.50;;;;;;;;;;5109088;27;20078;-61
2023/10/23 05:53:26;;;;;;;4.78;4.07;;;;;;;;;;5109153;27;20059;-44
2023/10/23 05:55:53;;;;;;;7.95;5.13;;;;;;;;;;5114953;27;20404;-42
2023/10/23 05:58:20;;;;;;;7.10;5.47;;;;;;;;;;5130502;27;20053;-43
2023/10/23 06:00:48;;;;;;;7.15;5.40;;;;;;;;;;5109725;27;20048;-43
2023/10/23 06:03:14;;;;;;;5.43;4.90;;;;;;;;;;5124005;27;20055;-43
2023/10/23 06:05:41;;;;;;;7.70;5.70;;;;;;;;;;5116629;27;20059;-63
2023/10/23 06:08:08;;;;;;;13.38;7.55;;;;;;;;;;5120801;27;20047;-64
2023/10/23 06:10:40;;;;;;;7.85;5.93;;;;;;;;;;5112772;27;20109;-63
2023/10/23 06:13:07;;;;;;;10.65;6.82;;;;;;;;;;5112842;27;20054;-63
2023/10/23 06:15:34;;;;;;;8.70;6.25;;;;;;;;;;5108889;27;20385;-64
2023/10/23 06:18:02;;;;;;;8.80;6.55;;;;;;;;;;5110172;27;20047;-63
2023/10/23 06:20:29;;;;;;;8.85;5.45;;;;;;;;;;5111866;27;20393;-64
2023/10/23 06:22:56;;;;;;;9.93;6.97;;;;;;;;;;5109758;28;20063;-64
2023/10/23 06:25:22;;;;;;;10.10;6.80;;;;;;;;;;5111357;27;20056;-64
2023/10/23 06:27:49;;;;;;;9.07;5.47;;;;;;;;;;5105261;28;20058;-64
2023/10/23 06:30:16;;;;;;;7.93;5.93;;;;;;;;;;5111524;27;20059;-64
2023/10/23 06:32:43;;;;;;;10.95;5.55;;;;;;;;;;5109580;28;20059;-64
2023/10/23 06:35:11;;;;;;;5.53;4.43;;;;;;;;;;5109160;27;20052;-64
2023/10/23 06:37:38;;;;;;;7.15;4.30;;;;;;;;;;5108396;28;20048;-64
2023/10/23 06:40:06;;;;;;;5.25;3.78;;;;;;;;;;5111942;27;20389;-64
2023/10/23 06:42:33;;;;;;;5.20;3.78;;;;;;;;;;5109116;27;20058;-65
2023/10/23 06:45:00;;;;;;;4.82;3.50;;;;;;;;;;5112437;27;20051;-64
2023/10/23 06:47:26;;;;;;;5.30;3.10;;;;;;;;;;5105367;28;20528;-64
2023/10/23 06:49:53;;;;;;;5.88;3.40;;;;;;;;;;5112533;27;20066;-64
2023/10/23 06:52:21;;;;;;;5.18;3.50;;;;;;;;;;5109477;28;20048;-63
2023/10/23 06:54:48;;;;;;;4.63;2.70;;;;;;;;;;5106743;27;20047;-64
2023/10/23 06:57:15;;;;;;;9.82;2.85;;;;;;;;;;5110007;28;20439;-64
2023/10/23 06:59:42;;;;;;;4.30;2.13;;;;;;;;;;5105653;27;20059;-64
2023/10/23 07:02:10;;;;;;;4.10;2.30;;;;;;;;;;5110350;27;20062;-64
2023/10/23 07:04:36;;;;;;;5.55;2.53;;;;;;;;;;5106235;27;20052;-64
2023/10/23 07:07:03;;;;;;;3.55;2.47;;;;;;;;;;5106471;27;20059;-64
2023/10/23 07:09:32;;;;;;;4.25;2.60;;;;;;;;;;5107224;27;20052;-64
2023/10/23 07:11:59;;;;;;;4.43;2.53;;;;;;;;;;5105666;28;20052;-64
2023/10/23 07:14:25;;;;;;;3.80;2.50;;;;;;;;;;5107954;27;20055;-64
2023/10/23 07:16:52;;;;;;;5.13;2.65;;;;;;;;;;5107946;27;20043;-64
2023/10/23 07:19:19;;;;;;;14.52;3.10;;;;;;;;;;5106764;28;20062;-64
2023/10/23 07:21:46;;;;;;;3.72;2.72;;;;;;;;;;5108906;27;20075;-64
2023/10/23 07:24:13;;;;;;;6.55;2.65;;;;;;;;;;5103067;28;20059;-64
2023/10/23 07:26:41;;;;;;;3.97;2.70;;;;;;;;;;5108022;27;20055;-64
2023/10/23 07:29:08;;;;;;;4.22;3.08;;;;;;;;;;5107812;27;20055;-64
2023/10/23 07:31:36;;;;;;;5.20;2.70;;;;;;;;;;5104997;27;20408;-64
2023/10/23 07:34:04;;;;;;;7.13;2.60;;;;;;;;;;5108601;28;20054;-64
2023/10/23 07:36:30;;;;;;;4.00;2.40;;;;;;;;;;5107413;27;20040;-64
2023/10/23 07:38:57;;;;;;;4.65;2.80;;;;;;;;;;5106856;28;20066;-64
2023/10/23 07:41:24;;;;;;;3.97;2.15;;;;;;;;;;5103720;28;20051;-65
2023/10/23 07:43:52;;;;;;;3.97;2.60;;;;;;;;;;5105020;27;20051;-64
2023/10/23 07:46:19;;;;;;;5.10;2.50;;;;;;;;;;5104831;27;20370;-65
2023/10/23 07:48:46;;;;;;;5.82;2.88;;;;;;;;;;5106715;28;20396;-64
2023/10/23 07:51:13;;;;;;;5.65;2.17;;;;;;;;;;5105217;27;20055;-64
2023/10/23 07:53:40;;;;;;;4.18;2.28;;;;;;;;;;5106125;28;20055;-64
2023/10/23 07:56:06;;;;;;;4.85;2.22;;;;;;;;;;5102169;27;20484;-64
2023/10/23 07:58:33;;;;;;;5.55;2.30;;;;;;;;;;5105939;27;20052;-64
2023/10/23 08:01:05;;;;;;;3.33;2.28;;;;;;;;;;5105332;27;20058;-64
2023/10/23 08:03:33;;;;;;;3.65;2.22;;;;;;;;;;5106165;27;20047;-64
2023/10/23 08:06:00;;;;;;;4.45;1.92;;;;;;;;;;5105215;27;21585;-64
2023/10/23 08:08:27;;;;;;;2.95;1.70;;;;;;;;;;5106977;28;20464;-64
2023/10/23 08:10:54;;;;;;;3.10;2.22;;;;;;;;;;5106223;28;20047;-65
2023/10/23 08:13:20;;;;;;;4.90;2.15;;;;;;;;;;5106222;27;20082;-65
2023/10/23 08:15:47;;;;;;;5.15;2.00;;;;;;;;;;5103922;28;20059;-63
2023/10/23 08:18:15;;;;;;;5.22;2.25;;;;;;;;;;5103017;27;20051;-64
2023/10/23 08:20:42;;;;;;;3.83;1.98;;;;;;;;;;5104076;28;20140;-65
2023/10/23 08:23:09;;;;;;;3.47;1.63;;;;;;;;;;5105530;27;20063;-64
2023/10/23 08:25:36;;;;;;;3.50;1.73;;;;;;;;;;5103564;28;20044;-65
2023/10/23 08:28:03;;;;;;;2.55;1.70;;;;;;;;;;5106885;28;20062;-64
2023/10/23 08:30:29;;;;;;;3.80;1.70;;;;;;;;;;5108831;27;20051;-64
2023/10/23 08:32:56;;;;;;;2.60;1.40;;;;;;;;;;5101770;28;20547;-64
2023/10/23 08:35:27;;;;;;;4.10;1.80;;;;;;;;;;5100870;28;20507;-64
2023/10/23 08:37:54;;;;;;;4.68;1.80;;;;;;;;;;5105706;27;20052;-64
2023/10/23 08:40:21;;;;;;;3.08;1.63;;;;;;;;;;5097187;28;20055;-63
2023/10/23 08:42:48;;;;;;;3.88;1.70;;;;;;;;;;5108621;27;20105;-64
2023/10/23 08:45:15;;;;;;;3.55;2.00;;;;;;;;;;5104362;27;20058;-63
2023/10/23 08:47:42;;;;;;;2.70;1.60;;;;;;;;;;5102526;28;20082;-64
2023/10/23 08:50:09;;;;;;;2.97;1.60;;;;;;;;;;5103029;28;20062;-63
2023/10/23 08:52:43;;;;;;;2.97;1.60;;;;;;;;;;5103772;28;20051;-64
2023/10/23 08:55:12;;;;;;;3.40;1.70;;;;;;;;;;5104164;28;21935;-64
2023/10/23 08:57:40;;;;;;;2.58;1.50;;;;;;;;;;5105707;28;20496;-62
2023/10/23 09:00:07;;;;;;;2.67;1.60;;;;;;;;;;5103948;28;20497;-62
2023/10/23 09:02:34;;;;;;;3.83;1.90;;;;;;;;;;5103916;28;20048;-64
2023/10/23 09:05:01;;;;;;;2.60;1.70;;;;;;;;;;5102421;28;20386;-61
2023/10/23 09:07:28;;;;;;;3.42;1.70;;;;;;;;;;5104698;28;20420;-62
2023/10/23 09:10:00;;;;;;;3.00;1.27;;;;;;;;;;5104615;28;20055;-62
2023/10/23 09:12:30;;;;;;;5.05;1.80;;;;;;;;;;5103616;28;20491;-62
2023/10/23 09:14:57;;;;;;;2.38;1.50;;;;;;;;;;5103085;28;20097;-62
2023/10/23 09:17:24;;;;;;;2.55;1.48;;;;;;;;;;5102988;28;20142;-62
2023/10/23 09:19:51;;;;;;;2.95;1.20;;;;;;;;;;5105104;28;20066;-62
2023/10/23 09:22:19;;;;;;;2.47;1.38;;;;;;;;;;5105481;28;20058;-61
2023/10/23 09:24:46;;;;;;;2.40;1.25;;;;;;;;;;5106609;28;20056;-63
2023/10/23 09:27:15;;;;;;;2.30;1.33;;;;;;;;;;5103913;28;20043;-62
2023/10/23 09:29:41;;;;;;;3.78;1.48;;;;;;;;;;5104826;28;20060;-62
2023/10/23 09:32:09;;;;;;;3.50;1.52;;;;;;;;;;5105249;28;20059;-62
2023/10/23 09:34:41;;;;;;;2.40;1.20;;;;;;;;;;5104685;28;20431;-62
2023/10/23 09:37:08;;;;;;;2.25;1.10;;;;;;;;;;5101996;28;20044;-62
2023/10/23 09:39:37;;;;;;;2.20;1.20;;;;;;;;;;5105555;28;20452;-62
2023/10/23 09:42:07;;;;;;;2.15;1.10;;;;;;;;;;5104394;28;20051;-63
2023/10/23 09:44:37;;;;;;;3.63;1.30;;;;;;;;;;5103188;28;20072;-63
2023/10/23 09:47:04;;;;;;;2.88;1.10;;;;;;;;;;5104352;27;20052;-63
2023/10/23 09:49:33;;;;;;;2.80;1.00;;;;;;;;;;5108001;28;20047;-63
2023/10/23 09:52:00;;;;;;;3.03;1.38;;;;;;;;;;5106115;27;20063;-63
2023/10/23 09:54:30;;;;;;;2.35;1.23;;;;;;;;;;5105971;27;20052;-62
2023/10/23 09:56:59;;;;;;;3.30;1.20;;;;;;;;;;5109003;27;20055;-63
2023/10/23 09:59:27;;;;;;;2.30;1.20;;;;;;;;;;5106135;28;20377;-64
2023/10/23 10:01:58;;;;;;;2.28;1.20;;;;;;;;;;5109839;27;20047;-65
2023/10/23 10:04:26;;;;;;;2.65;0.95;;;;;;;;;;5104800;27;20059;-63
2023/10/23 10:06:54;;;;;;;3.53;1.10;;;;;;;;;;5106028;28;20051;-63
2023/10/23 10:09:22;;;;;;;2.30;1.30;;;;;;;;;;5103195;27;20052;-63
2023/10/23 10:11:49;;;;;;;2.05;1.20;;;;;;;;;;5107114;27;20055;-64
2023/10/23 10:14:17;;;;;;;3.05;1.17;;;;;;;;;;5103532;28;20540;-62
2023/10/23 10:16:45;;;;;;;3.38;1.30;;;;;;;;;;5108430;27;20423;-62
2023/10/23 10:19:13;;;;;;;2.92;1.30;;;;;;;;;;5104802;27;20055;-63
2023/10/23 10:21:46;;;;;;;4.22;1.33;;;;;;;;;;5106964;27;20062;-63
2023/10/23 10:24:13;;;;;;;2.60;1.33;;;;;;;;;;5107186;28;20059;-63
2023/10/23 10:26:40;;;;;;;2.55;1.20;;;;;;;;;;5108527;28;20051;-63
2023/10/23 10:29:09;;;;;;;2.08;1.40;;;;;;;;;;5105431;27;20056;-63
2023/10/23 10:31:50;;;;;;;2.70;1.50;;;;;;;;;;5106711;27;20059;-63
2023/10/23 10:34:21;;;;;;;4.25;1.30;;;;;;;;;;5111215;27;20420;-63
2023/10/23 10:36:48;;;;;;;1.60;1.08;;;;;;;;;;5109892;28;20048;-63
2023/10/23 10:39:16;;;;;;;2.17;1.10;;;;;;;;;;5107520;27;20047;-63
2023/10/23 10:41:43;;;;;;;2.45;1.48;;;;;;;;;;5108566;28;20051;-63
2023/10/23 10:44:11;;;;;;;2.53;1.45;;;;;;;;;;5109121;27;20171;-63
2023/10/23 10:46:40;;;;;;;2.92;1.27;;;;;;;;;;5105766;28;20423;-63
2023/10/23 10:49:07;;;;;;;2.95;1.50;;;;;;;;;;5109082;27;20056;-63
2023/10/23 10:51:36;;;;;;;2.58;1.50;;;;;;;;;;5108481;28;20059;-62
2023/10/23 10:54:06;;;;;;;3.63;1.70;;;;;;;;;;5109413;27;20400;-63
2023/10/23 10:56:33;;;;;;;2.47;1.23;;;;;;;;;;5108370;28;20528;-63
2023/10/23 10:59:00;;;;;;;3.05;1.30;;;;;;;;;;5108060;27;20074;-62
2023/10/23 11:01:27;;;;;;;1.50;1.10;;;;;;;;;;5108854;28;20060;-63
2023/10/23 11:03:53;;;;;;;2.28;1.27;;;;;;;;;;5108500;28;20066;-63
2023/10/23 11:06:20;;;;;;;2.85;1.30;;;;;;;;;;5109324;28;20452;-63
2023/10/23 11:08:48;;;;;;;2.00;1.23;;;;;;;;;;5108421;27;20059;-63
2023/10/23 11:11:15;;;;;;;2.58;1.10;;;;;;;;;;5105721;28;20047;-64
2023/10/23 11:13:43;;;;;;;2.40;1.25;;;;;;;;;;5108494;27;20060;-69
2023/10/23 11:16:11;;;;;;;2.42;1.13;;;;;;;;;;5108975;28;20066;-65
2023/10/23 11:18:38;;;;;;;3.10;1.33;;;;;;;;;;5108640;28;20418;-63
2023/10/23 11:21:06;;;;;;;2.97;1.50;;;;;;;;;;5107157;28;20489;-68
2023/10/23 11:23:33;;;;;;;2.05;1.20;;;;;;;;;;5109190;28;20051;-67
2023/10/23 11:26:01;;;;;;;1.77;1.00;;;;;;;;;;5107122;27;20052;-61
2023/10/23 11:28:28;;;;;;;1.83;0.90;;;;;;;;;;5106159;28;20365;-60
2023/10/23 11:30:55;;;;;;;2.35;0.80;;;;;;;;;;5106777;28;20136;-63
2023/10/23 11:33:22;;;;;;;2.17;1.00;;;;;;;;;;5103963;27;20077;-63
2023/10/23 11:35:49;;;;;;;2.25;0.90;;;;;;;;;;5105925;28;20066;-63
2023/10/23 11:38:16;;;;;;;1.42;0.90;;;;;;;;;;5106379;28;20047;-63
2023/10/23 11:40:44;;;;;;;1.52;0.80;;;;;;;;;;5104888;28;20067;-63
2023/10/23 11:43:13;;;;;;;2.30;0.85;;;;;;;;;;5097246;28;20051;-62
2023/10/23 11:45:42;;;;;;;1.67;0.80;;;;;;;;;;5103575;27;20459;-62
2023/10/23 11:48:09;;;;;;;1.95;1.13;;;;;;;;;;5102068;28;20464;-62
2023/10/23 11:50:36;;;;;;;1.55;0.98;;;;;;;;;;5103544;28;20067;-62
2023/10/23 11:53:04;;;;;;;1.50;0.90;;;;;;;;;;5102941;27;20055;-63
2023/10/23 11:55:31;;;;;;;1.92;1.00;;;;;;;;;;5101011;27;20062;-62
2023/10/23 11:57:58;;;;;;;1.65;0.80;;;;;;;;;;5108480;27;20043;-62
2023/10/23 12:00:27;;;;;;;1.85;0.80;;;;;;;;;;5107086;27;20048;-62
2023/10/23 12:02:54;;;;;;;1.98;0.90;;;;;;;;;;5106250;28;20056;-61
2023/10/23 12:05:22;;;;;;;1.90;0.90;;;;;;;;;;5098142;28;20051;-61
2023/10/23 12:07:52;;;;;;;2.47;0.80;;;;;;;;;;5105802;28;20048;-62
2023/10/23 12:10:19;;;;;;;2.05;0.80;;;;;;;;;;5097247;28;20051;-62
2023/10/23 12:12:52;;;;;;;1.95;1.00;;;;;;;;;;5100342;28;20052;-61
2023/10/23 12:15:23;;;;;;;3.08;0.93;;;;;;;;;;5101431;28;20067;-62
2023/10/23 12:17:51;;;;;;;1.50;0.90;;;;;;;;;;5098797;27;20059;-61
2023/10/23 12:20:21;;;;;;;3.20;1.00;;;;;;;;;;5100649;28;20048;-61
2023/10/23 12:22:48;;;;;;;1.58;0.90;;;;;;;;;;5097306;28;20062;-62
2023/10/23 12:25:16;;;;;;;3.20;1.08;;;;;;;;;;5097657;27;20044;-62
2023/10/23 12:27:43;;;;;;;1.55;1.00;;;;;;;;;;5103024;28;20040;-62
2023/10/23 12:30:10;;;;;;;2.25;0.90;;;;;;;;;;5107919;28;20052;-62
2023/10/23 12:32:39;;;;;;;5.60;1.25;;;;;;;;;;5104364;28;20087;-61
2023/10/23 12:35:08;;;;;;;2.35;0.85;;;;;;;;;;5109619;28;20058;-61
2023/10/23 12:37:37;;;;;;;1.77;0.98;;;;;;;;;;5110205;27;20055;-61
2023/10/23 12:40:08;;;;;;;2.30;1.42;;;;;;;;;;5114670;27;20506;-61
2023/10/23 12:42:35;;;;;;;2.38;0.85;;;;;;;;;;5112227;27;20055;-61
2023/10/23 12:45:02;;;;;;;1.77;0.95;;;;;;;;;;5107849;28;20051;-61
2023/10/23 12:47:28;;;;;;;1.67;0.90;;;;;;;;;;5102542;28;20535;-61
2023/10/23 12:49:55;;;;;;;2.13;1.00;;;;;;;;;;5109501;28;20408;-61
2023/10/23 12:52:23;;;;;;;2.05;0.88;;;;;;;;;;5103070;28;20043;-61
2023/10/23 12:54:50;;;;;;;3.33;0.98;;;;;;;;;;5104825;28;20047;-61
2023/10/23 12:57:17;;;;;;;2.00;0.93;;;;;;;;;;5110163;28;20062;-61
2023/10/23 12:59:44;;;;;;;3.05;0.98;;;;;;;;;;5107370;28;20467;-62
2023/10/23 13:02:11;;;;;;;1.85;1.08;;;;;;;;;;5090052;28;20053;-61
2023/10/23 13:04:38;;;;;;;2.28;0.93;;;;;;;;;;5088762;28;20055;-61
2023/10/23 13:07:04;;;;;;;2.42;1.00;;;;;;;;;;5084971;28;20049;-61
2023/10/23 13:09:33;;;;;;;1.60;0.80;;;;;;;;;;5086901;28;20407;-61
2023/10/23 13:11:59;;;;;;;1.45;0.75;;;;;;;;;;5084510;28;20044;-61
2023/10/23 13:14:26;;;;;;;3.13;1.13;;;;;;;;;;5075464;28;20398;-61
2023/10/23 13:16:55;;;;;;;2.83;0.98;;;;;;;;;;5083760;28;20374;-61
2023/10/23 13:19:22;;;;;;;2.90;0.93;;;;;;;;;;5089364;28;20055;-61
2023/10/23 13:21:49;;;;;;;4.22;1.33;;;;;;;;;;5087775;28;20063;-61
2023/10/23 13:24:17;;;;;;;2.60;0.93;;;;;;;;;;5089878;28;20048;-61
2023/10/23 13:26:48;;;;;;;2.57;0.93;;;;;;;;;;5094641;28;20040;-61
2023/10/23 13:29:15;;;;;;;2.10;1.00;;;;;;;;;;5094455;28;20416;-61
2023/10/23 13:31:43;;;;;;;2.30;1.10;;;;;;;;;;5085561;28;20063;-62
2023/10/23 13:34:10;;;;;;;2.90;0.82;;;;;;;;;;5083324;28;20059;-60
2023/10/23 13:36:37;;;;;;;2.78;1.00;;;;;;;;;;5084840;28;20055;-61
2023/10/23 13:39:06;;;;;;;3.65;1.15;;;;;;;;;;5093236;28;20048;-61
2023/10/23 13:41:33;;;;;;;2.45;0.90;;;;;;;;;;5087817;28;20051;-61
2023/10/23 13:44:03;;;;;;;2.83;1.20;;;;;;;;;;5082482;28;20051;-61
2023/10/23 13:46:29;;;;;;;2.20;0.90;;;;;;;;;;5086377;28;20051;-61
2023/10/23 13:48:56;;;;;;;3.10;1.30;;;;;;;;;;5081475;28;20067;-61
2023/10/23 13:51:23;;;;;;;4.25;0.80;;;;;;;;;;5085719;28;20409;-61
2023/10/23 13:53:50;;;;;;;3.20;0.90;;;;;;;;;;5089365;28;20044;-61
2023/10/23 13:56:17;;;;;;;2.50;1.00;;;;;;;;;;5088991;28;20052;-61
2023/10/23 13:58:44;;;;;;;2.33;1.10;;;;;;;;;;5085070;28;20048;-61
2023/10/23 14:01:13;;;;;;;3.13;1.13;;;;;;;;;;5092370;28;20079;-61
2023/10/23 14:03:40;;;;;;;2.88;1.00;;;;;;;;;;5087833;28;20489;-61
2023/10/23 14:06:07;;;;;;;3.13;1.10;;;;;;;;;;5086629;28;20063;-61
2023/10/23 14:08:34;;;;;;;2.10;0.95;;;;;;;;;;5078683;28;20049;-61
2023/10/23 14:11:00;;;;;;;3.47;1.60;;;;;;;;;;5092621;28;20365;-60
2023/10/23 14:13:27;;;;;;;3.60;1.70;;;;;;;;;;5087439;28;20045;-61
2023/10/23 14:15:54;;;;;;;2.58;1.10;;;;;;;;;;5087631;28;20044;-61
2023/10/23 14:18:22;;;;;;;4.78;1.10;;;;;;;;;;5098527;28;20500;-60
2023/10/23 14:20:49;;;;;;;2.90;1.00;;;;;;;;;;5091434;28;20048;-60
2023/10/23 14:23:17;;;;;;;2.08;1.08;;;;;;;;;;5090915;28;20067;-60
2023/10/23 14:25:44;;;;;;;2.75;1.00;;;;;;;;;;5092816;28;20673;-60
2023/10/23 14:28:10;;;;;;;4.57;1.30;;;;;;;;;;5091638;28;20047;-60
2023/10/23 14:30:37;;;;;;;2.78;1.20;;;;;;;;;;5090843;28;20079;-60
2023/10/23 14:33:06;;;;;;;1.83;0.73;;;;;;;;;;5080914;28;20048;-60
2023/10/23 14:35:35;;;;;;;3.13;1.00;;;;;;;;;;5083231;28;20056;-59
2023/10/23 14:38:02;;;;;;;2.30;0.80;;;;;;;;;;5085587;28;20048;-60
2023/10/23 14:40:30;;;;;;;2.63;0.93;;;;;;;;;;5087429;28;20044;-61
2023/10/23 14:42:58;;;;;;;3.92;1.00;;;;;;;;;;5091243;28;20058;-60
2023/10/23 14:45:24;;;;;;;2.33;0.75;;;;;;;;;;5091798;28;20440;-59